createdAt,value
2023-03-18T00:00:20.961Z,7.03
2023-03-18T00:03:06.911Z,6.63
2023-03-18T00:05:52.770Z,6.57
2023-03-18T00:08:39.513Z,6.88
2023-03-18T00:11:25.152Z,6.75
2023-03-18T00:14:11.136Z,7.05
2023-03-18T00:16:57.133Z,6.10
2023-03-18T00:19:42.484Z,6.57
2023-03-18T00:22:28.297Z,7.00
2023-03-18T00:25:14.862Z,6.47
2023-03-18T00:28:00.434Z,6.90
2023-03-18T00:30:46.278Z,6.82
2023-03-18T00:33:31.992Z,6.55
2023-03-18T00:36:18.444Z,6.75
2023-03-18T00:39:04.301Z,6.82
2023-03-18T00:41:49.433Z,6.25
2023-03-18T00:44:34.746Z,6.22
2023-03-18T00:47:20.967Z,7.78
2023-03-18T00:50:08.448Z,6.93
2023-03-18T00:52:54.712Z,6.32
2023-03-18T00:55:41.102Z,6.40
2023-03-18T00:58:26.898Z,6.78
2023-03-18T01:01:13.785Z,6.53
2023-03-18T01:04:00.132Z,6.80
2023-03-18T01:06:47.842Z,5.83
2023-03-18T01:09:32.837Z,6.53
2023-03-18T01:12:18.369Z,6.55
2023-03-18T01:15:05.525Z,5.70
2023-03-18T01:17:54.264Z,6.70
2023-03-18T01:20:39.823Z,6.43
2023-03-18T01:23:26.318Z,6.38
2023-03-18T01:26:12.532Z,6.13
2023-03-18T01:29:01.048Z,5.60
2023-03-18T01:31:49.123Z,5.93
2023-03-18T01:34:34.654Z,5.68
2023-03-18T01:40:16.109Z,7.00
2023-03-18T01:43:10.382Z,6.10
2023-03-18T01:45:59.410Z,5.82
2023-03-18T01:48:46.473Z,6.35
2023-03-18T01:51:32.296Z,5.68
2023-03-18T01:54:19.016Z,6.55
2023-03-18T01:57:04.270Z,5.72
2023-03-18T01:59:52.020Z,5.30
2023-03-18T02:02:42.324Z,5.90
2023-03-18T02:05:28.430Z,6.18
2023-03-18T02:08:13.999Z,5.68
2023-03-18T02:10:59.819Z,5.55
2023-03-18T02:13:46.704Z,6.43
2023-03-18T02:16:41.668Z,6.25
2023-03-18T02:19:45.264Z,5.78
2023-03-18T02:22:39.504Z,5.85
2023-03-18T02:25:47.774Z,5.78
2023-03-18T02:28:37.380Z,5.68
2023-03-18T02:31:23.120Z,5.80
2023-03-18T02:34:09.972Z,5.68
2023-03-18T02:36:57.279Z,6.43
2023-03-18T02:39:42.692Z,6.72
2023-03-18T02:42:31.395Z,5.85
2023-03-18T02:45:43.716Z,5.68
2023-03-18T02:48:37.535Z,5.35
2023-03-18T02:51:24.681Z,5.63
2023-03-18T02:54:16.317Z,5.93
2023-03-18T02:57:02.846Z,5.97
2023-03-18T02:59:48.367Z,5.72
2023-03-18T03:02:33.819Z,6.28
2023-03-18T03:05:18.953Z,6.20
2023-03-18T03:08:04.707Z,5.53
2023-03-18T03:13:41.926Z,6.20
2023-03-18T03:16:31.381Z,5.93
2023-03-18T03:19:16.966Z,6.07
2023-03-18T03:22:02.478Z,6.35
2023-03-18T03:24:48.672Z,6.47
2023-03-18T03:27:34.224Z,6.22
2023-03-18T03:30:19.663Z,6.50
2023-03-18T03:33:04.936Z,6.07
2023-03-18T03:35:52.175Z,6.63
2023-03-18T03:38:38.540Z,6.65
2023-03-18T03:41:23.912Z,6.22
2023-03-18T03:44:09.091Z,6.57
2023-03-18T03:46:54.423Z,6.80
2023-03-18T03:49:41.592Z,6.40
2023-03-18T03:52:28.664Z,6.22
2023-03-18T03:55:19.328Z,7.68
2023-03-18T03:58:04.668Z,6.20
2023-03-18T04:00:50.840Z,5.95
2023-03-18T04:03:36.329Z,6.72
2023-03-18T04:06:24.608Z,6.70
2023-03-18T04:09:17.933Z,6.40
2023-03-18T04:12:05.519Z,6.28
2023-03-18T04:14:51.901Z,6.45
2023-03-18T04:17:37.988Z,6.45
2023-03-18T04:20:23.497Z,5.93
2023-03-18T04:23:09.541Z,6.20
2023-03-18T04:25:54.847Z,6.97
2023-03-18T04:28:40.605Z,6.25
2023-03-18T04:31:28.713Z,6.03
2023-03-18T04:34:14.200Z,6.35
2023-03-18T04:36:59.755Z,6.85
2023-03-18T04:39:48.275Z,6.60
2023-03-18T04:42:33.879Z,5.40
2023-03-18T04:45:19.933Z,5.78
2023-03-18T04:48:05.765Z,6.97
2023-03-18T04:50:55.928Z,6.10
2023-03-18T04:53:45.141Z,6.28
2023-03-18T04:56:32.163Z,6.80
2023-03-18T04:59:19.064Z,6.80
2023-03-18T05:02:06.161Z,5.63
2023-03-18T05:04:53.098Z,6.80
2023-03-18T05:07:38.944Z,6.00
2023-03-18T05:10:29.761Z,5.93
2023-03-18T05:13:16.123Z,6.15
2023-03-18T05:16:02.178Z,6.70
2023-03-18T05:18:47.349Z,5.50
2023-03-18T05:21:33.247Z,5.53
2023-03-18T05:24:19.727Z,5.90
2023-03-18T05:27:06.164Z,6.18
2023-03-18T05:29:56.887Z,6.03
2023-03-18T05:32:49.016Z,6.80
2023-03-18T05:35:36.271Z,5.60
2023-03-18T05:38:22.598Z,5.97
2023-03-18T05:41:08.675Z,6.32
2023-03-18T05:43:57.879Z,6.50
2023-03-18T05:46:44.633Z,7.00
2023-03-18T05:49:36.081Z,6.53
2023-03-18T05:52:32.715Z,6.20
2023-03-18T05:55:21.839Z,6.60
2023-03-18T05:58:07.217Z,6.50
2023-03-18T06:00:54.724Z,6.47
2023-03-18T06:03:39.910Z,6.88
2023-03-18T06:06:24.984Z,7.10
2023-03-18T06:09:12.566Z,6.88
2023-03-18T06:12:00.838Z,6.78
2023-03-18T06:14:46.512Z,6.00
2023-03-18T06:17:32.503Z,6.40
2023-03-18T06:20:19.402Z,6.63
2023-03-18T06:23:05.308Z,6.68
2023-03-18T06:25:51.238Z,6.28
2023-03-18T06:28:38.148Z,6.68
2023-03-18T06:31:28.517Z,5.88
2023-03-18T06:34:14.834Z,7.40
2023-03-18T06:37:00.261Z,6.43
2023-03-18T06:39:45.721Z,6.85
2023-03-18T06:42:32.340Z,6.75
2023-03-18T06:45:29.106Z,6.80
2023-03-18T06:48:19.617Z,7.45
2023-03-18T06:51:07.692Z,6.85
2023-03-18T06:53:57.814Z,7.50
2023-03-18T06:56:48.788Z,7.18
2023-03-18T06:59:37.437Z,7.13
2023-03-18T07:02:27.292Z,7.75
2023-03-18T07:05:17.072Z,6.55
2023-03-18T07:08:02.895Z,7.88
2023-03-18T07:10:48.038Z,6.55
2023-03-18T07:13:34.701Z,7.18
2023-03-18T07:16:22.286Z,7.45
2023-03-18T07:19:08.241Z,7.30
2023-03-18T07:21:53.511Z,7.45
2023-03-18T07:24:39.050Z,7.20
2023-03-18T07:27:25.684Z,7.28
2023-03-18T07:30:12.066Z,7.47
2023-03-18T07:32:57.681Z,7.13
2023-03-18T07:35:44.718Z,7.25
2023-03-18T07:38:30.613Z,7.10
2023-03-18T07:41:15.937Z,6.57
2023-03-18T07:44:01.446Z,7.00
2023-03-18T07:46:46.821Z,7.43
2023-03-18T07:49:32.095Z,6.72
2023-03-18T07:52:18.100Z,7.63
2023-03-18T07:55:05.852Z,7.25
2023-03-18T07:57:51.208Z,6.93
2023-03-18T08:00:36.443Z,6.57
2023-03-18T08:03:22.495Z,7.35
2023-03-18T08:06:08.081Z,8.05
2023-03-18T08:08:53.503Z,8.27
2023-03-18T08:11:38.711Z,7.43
2023-03-18T08:14:24.222Z,7.07
2023-03-18T08:17:09.671Z,7.22
2023-03-18T08:19:54.987Z,14.85
2023-03-18T08:22:40.131Z,13.88
2023-03-18T08:25:26.049Z,7.65
2023-03-18T08:28:11.676Z,7.35
2023-03-18T08:30:59.159Z,7.13
2023-03-18T08:33:45.062Z,5.97
2023-03-18T08:36:30.968Z,7.10
2023-03-18T08:39:16.556Z,7.25
2023-03-18T08:42:05.428Z,6.25
2023-03-18T08:44:53.413Z,5.88
2023-03-18T08:47:39.144Z,6.85
2023-03-18T08:50:28.410Z,6.15
2023-03-18T08:53:13.872Z,6.18
2023-03-18T08:56:00.821Z,6.50
2023-03-18T08:58:48.541Z,6.43
2023-03-18T09:01:34.146Z,6.45
2023-03-18T09:04:20.176Z,5.97
2023-03-18T09:07:05.618Z,6.80
2023-03-18T09:09:50.809Z,5.70
2023-03-18T09:12:36.840Z,6.47
2023-03-18T09:15:22.502Z,5.78
2023-03-18T09:18:12.270Z,5.72
2023-03-18T09:20:57.440Z,6.65
2023-03-18T09:23:43.199Z,6.70
2023-03-18T09:26:28.222Z,6.88
2023-03-18T09:29:13.638Z,6.43
2023-03-18T09:32:00.490Z,7.45
2023-03-18T09:34:46.484Z,6.57
2023-03-18T09:37:31.883Z,5.72
2023-03-18T09:40:29.393Z,6.43
2023-03-18T09:43:33.132Z,6.88
2023-03-18T09:46:43.344Z,6.35
2023-03-18T09:49:39.688Z,5.88
2023-03-18T09:52:47.088Z,6.38
2023-03-18T09:55:53.047Z,5.63
2023-03-18T09:58:41.557Z,5.90
2023-03-18T10:01:28.486Z,5.97
2023-03-18T10:04:22.166Z,6.00
2023-03-18T10:07:15.027Z,6.45
2023-03-18T10:09:58.052Z,6.35
2023-03-18T10:12:50.587Z,5.18
2023-03-18T10:16:01.316Z,6.03
2023-03-18T10:18:47.692Z,5.63
2023-03-18T10:21:45.425Z,5.63
2023-03-18T10:24:46.690Z,6.15
2023-03-18T10:27:59.822Z,5.65
2023-03-18T10:31:00.269Z,5.80
2023-03-18T10:33:54.752Z,5.45
2023-03-18T10:37:05.878Z,5.68
2023-03-18T10:39:53.089Z,6.57
2023-03-18T10:42:38.293Z,6.15
2023-03-18T10:45:33.650Z,5.25
2023-03-18T10:48:20.537Z,6.10
2023-03-18T10:51:13.154Z,5.40
2023-03-18T10:54:15.735Z,4.95
2023-03-18T10:57:01.224Z,6.13
2023-03-18T10:59:47.606Z,5.85
2023-03-18T11:02:36.144Z,4.90
2023-03-18T11:05:29.637Z,5.97
2023-03-18T11:08:36.792Z,5.63
2023-03-18T11:11:29.052Z,5.90
2023-03-18T11:14:19.631Z,5.95
2023-03-18T11:17:18.966Z,4.72
2023-03-18T11:20:07.936Z,5.70
2023-03-18T11:22:56.043Z,6.47
2023-03-18T11:25:45.826Z,5.15
2023-03-18T11:31:18.378Z,4.95
2023-03-18T11:34:08.677Z,4.40
2023-03-18T11:37:01.319Z,4.97
2023-03-18T11:39:48.534Z,4.88
2023-03-18T11:42:33.830Z,5.60
2023-03-18T11:45:37.351Z,5.80
2023-03-18T11:48:29.300Z,5.95
2023-03-18T11:51:36.603Z,5.25
2023-03-18T11:54:44.307Z,5.82
2023-03-18T11:57:46.528Z,5.30
2023-03-18T12:00:39.000Z,4.55
2023-03-18T12:03:52.430Z,5.82
2023-03-18T12:06:45.174Z,4.82
2023-03-18T12:09:47.205Z,4.30
2023-03-18T12:13:09.814Z,4.63
2023-03-18T12:16:01.547Z,4.35
2023-03-18T12:19:12.451Z,4.30
2023-03-18T12:22:19.454Z,3.53
2023-03-18T12:25:49.536Z,3.58
2023-03-18T12:29:17.336Z,4.15
2023-03-18T12:32:23.958Z,4.72
2023-03-18T12:35:41.564Z,3.88
2023-03-18T12:39:04.653Z,4.20
2023-03-18T12:42:01.973Z,4.65
2023-03-18T12:45:17.155Z,4.70
2023-03-18T12:48:44.857Z,4.30
2023-03-18T12:51:43.242Z,3.90
2023-03-18T12:54:33.834Z,4.93
2023-03-18T12:57:32.917Z,5.50
2023-03-18T13:00:20.432Z,4.63
2023-03-18T13:03:28.116Z,4.97
2023-03-18T13:06:37.540Z,4.80
2023-03-18T13:09:44.595Z,4.38
2023-03-18T13:12:37.081Z,4.35
2023-03-18T13:15:32.772Z,4.30
2023-03-18T13:18:44.301Z,4.63
2023-03-18T13:21:31.511Z,4.13
2023-03-18T13:24:54.026Z,4.53
2023-03-18T13:28:00.782Z,4.32
2023-03-18T13:30:50.173Z,5.07
2023-03-18T13:33:50.352Z,4.97
2023-03-18T13:36:47.142Z,5.35
2023-03-18T13:39:48.952Z,5.22
2023-03-18T13:42:37.970Z,4.72
2023-03-18T13:45:42.295Z,5.57
2023-03-18T13:48:33.684Z,5.70
2023-03-18T13:51:20.983Z,6.75
2023-03-18T13:54:14.689Z,7.88
2023-03-18T13:57:18.644Z,5.78
2023-03-18T14:00:14.745Z,4.78
2023-03-18T14:03:06.620Z,5.05
2023-03-18T14:06:30.210Z,5.53
2023-03-18T14:09:46.019Z,5.53
2023-03-18T14:12:31.150Z,5.88
2023-03-18T14:15:37.660Z,6.97
2023-03-18T14:18:27.738Z,7.13
2023-03-18T14:21:29.018Z,6.30
2023-03-18T14:24:17.446Z,4.57
2023-03-18T14:27:08.598Z,4.45
2023-03-18T14:29:53.634Z,5.00
2023-03-18T14:32:39.665Z,5.50
2023-03-18T14:35:32.973Z,5.80
2023-03-18T14:38:20.303Z,6.25
2023-03-18T14:41:19.638Z,6.35
2023-03-18T14:44:34.227Z,5.75
2023-03-18T14:47:38.145Z,5.00
2023-03-18T14:50:41.371Z,5.60
2023-03-18T14:53:35.137Z,5.55
2023-03-18T14:56:28.873Z,4.97
2023-03-18T14:59:15.727Z,4.85
2023-03-18T15:02:03.351Z,4.57
2023-03-18T15:04:54.509Z,5.38
2023-03-18T15:07:41.267Z,4.28
2023-03-18T15:10:30.945Z,4.45
2023-03-18T15:13:20.944Z,4.85
2023-03-18T15:18:54.632Z,4.10
2023-03-18T15:21:40.376Z,4.32
2023-03-18T15:24:27.001Z,5.97
2023-03-18T15:27:20.473Z,5.07
2023-03-18T15:30:07.270Z,4.10
2023-03-18T15:33:02.810Z,4.68
2023-03-18T15:35:54.953Z,4.95
2023-03-18T15:38:49.699Z,5.35
2023-03-18T15:41:36.909Z,4.60
2023-03-18T15:44:31.356Z,4.43
2023-03-18T15:47:30.236Z,7.28
2023-03-18T15:50:26.985Z,6.70
2023-03-18T15:53:22.988Z,5.20
2023-03-18T15:56:17.545Z,4.10
2023-03-18T15:59:03.906Z,5.38
2023-03-18T16:01:50.345Z,5.45
2023-03-18T16:04:36.186Z,5.75
2023-03-18T16:07:28.253Z,4.50
2023-03-18T16:10:18.603Z,4.53
2023-03-18T16:13:04.682Z,5.13
2023-03-18T16:15:51.038Z,4.65
2023-03-18T16:18:36.227Z,4.65
2023-03-18T16:21:22.810Z,4.50
2023-03-18T16:24:08.535Z,4.82
2023-03-18T16:26:55.617Z,5.72
2023-03-18T16:29:41.634Z,8.65
2023-03-18T16:32:27.254Z,7.25
2023-03-18T16:35:17.917Z,6.60
2023-03-18T16:38:03.377Z,6.32
2023-03-18T16:40:48.897Z,5.72
2023-03-18T16:43:34.345Z,6.00
2023-03-18T16:46:19.690Z,5.57
2023-03-18T16:49:05.308Z,7.90
2023-03-18T16:51:51.562Z,9.18
2023-03-18T16:54:36.685Z,10.90
2023-03-18T16:57:23.525Z,11.52
2023-03-18T17:00:29.986Z,9.13
2023-03-18T17:03:18.058Z,8.35
2023-03-18T17:06:03.574Z,9.27
2023-03-18T17:08:49.926Z,7.90
2023-03-18T17:11:36.729Z,7.57
2023-03-18T17:14:47.113Z,9.32
2023-03-18T17:17:38.051Z,9.15
2023-03-18T17:20:23.341Z,12.60
2023-03-18T17:23:18.906Z,14.70
2023-03-18T17:26:05.906Z,12.27
2023-03-18T17:28:53.836Z,10.95
2023-03-18T17:31:39.304Z,14.35
2023-03-18T17:34:29.127Z,19.40
2023-03-18T17:37:14.296Z,23.95
2023-03-18T17:39:59.429Z,19.63
2023-03-18T17:42:47.479Z,11.63
2023-03-18T17:45:35.212Z,11.77
2023-03-18T17:48:25.951Z,8.00
2023-03-18T17:51:17.278Z,7.32
2023-03-18T17:54:05.668Z,8.15
2023-03-18T17:56:52.346Z,11.25
2023-03-18T17:59:37.701Z,11.45
2023-03-18T18:02:23.837Z,12.77
2023-03-18T18:05:20.104Z,9.32
2023-03-18T18:08:14.983Z,10.15
2023-03-18T18:11:23.808Z,8.15
2023-03-18T18:14:19.119Z,7.93
2023-03-18T18:17:14.124Z,7.13
2023-03-18T18:20:02.101Z,9.38
2023-03-18T18:22:53.119Z,7.50
2023-03-18T18:25:38.472Z,7.68
2023-03-18T18:28:30.378Z,8.25
2023-03-18T18:31:18.039Z,8.68
2023-03-18T18:34:03.454Z,9.60
2023-03-18T18:36:49.689Z,9.98
2023-03-18T18:39:38.218Z,10.50
2023-03-18T18:42:23.149Z,11.55
2023-03-18T18:45:14.633Z,12.65
2023-03-18T18:48:00.181Z,11.73
2023-03-18T18:50:47.975Z,12.55
2023-03-18T18:53:38.381Z,12.57
2023-03-18T18:56:34.619Z,11.55
2023-03-18T18:59:30.576Z,8.98
2023-03-18T19:02:29.261Z,9.52
2023-03-18T19:08:34.918Z,10.70
2023-03-18T19:11:20.040Z,9.73
